Terminal Aerodrome Forecast
Issued by NWS

Home | Current Version | Previous Version | Text Only | Print | Product List | Glossary On
Versions: 1 2 3 4 5 6 7 8 9 10 11 12 13 14 15 16 17 18 19 20 21 22 23 24
000
FTUS41 KGYX 290529
TAFRKD
TAF
KRKD 290529Z 2906/3006 26003KT P6SM SKC
     FM290900 00000KT 3/4SM BR SCT001
     FM291200 18006KT P6SM SKC
     FM300100 24003KT P6SM SCT150
      AMD LTD TO CLD VIS AND WIND=

USA.gov is the U.S. government's official web portal to all federal, state and local government web resources and services.